sensor_id;sensor_type;location;lat;lon;timestamp;P1;durP1;ratioP1;P2;durP2;ratioP2
9958;SDS011;5019;48.012;7.812;2023-05-07T00:00:20;8.57;;;4.50;;
9958;SDS011;5019;48.012;7.812;2023-05-07T00:02:46;8.97;;;4.83;;
9958;SDS011;5019;48.012;7.812;2023-05-07T00:05:13;4.00;;;3.57;;
9958;SDS011;5019;48.012;7.812;2023-05-07T00:07:39;3.73;;;2.90;;
9958;SDS011;5019;48.012;7.812;2023-05-07T00:10:05;5.03;;;2.90;;
9958;SDS011;5019;48.012;7.812;2023-05-07T00:12:32;3.33;;;2.67;;
9958;SDS011;5019;48.012;7.812;2023-05-07T00:15:04;4.57;;;3.47;;
9958;SDS011;5019;48.012;7.812;2023-05-07T00:17:30;4.90;;;3.23;;
9958;SDS011;5019;48.012;7.812;2023-05-07T00:19:56;3.90;;;3.60;;
9958;SDS011;5019;48.012;7.812;2023-05-07T00:22:22;5.90;;;3.57;;
9958;SDS011;5019;48.012;7.812;2023-05-07T00:24:48;4.13;;;3.70;;
9958;SDS011;5019;48.012;7.812;2023-05-07T00:27:14;4.87;;;2.90;;
9958;SDS011;5019;48.012;7.812;2023-05-07T00:29:40;5.50;;;3.07;;
9958;SDS011;5019;48.012;7.812;2023-05-07T00:32:06;3.40;;;3.17;;
9958;SDS011;5019;48.012;7.812;2023-05-07T00:34:32;4.00;;;3.30;;
9958;SDS011;5019;48.012;7.812;2023-05-07T00:36:58;3.67;;;3.33;;
9958;SDS011;5019;48.012;7.812;2023-05-07T00:39:24;2.97;;;2.67;;
9958;SDS011;5019;48.012;7.812;2023-05-07T00:41:50;4.83;;;3.10;;
9958;SDS011;5019;48.012;7.812;2023-05-07T00:44:16;3.23;;;2.90;;
9958;SDS011;5019;48.012;7.812;2023-05-07T00:46:43;7.20;;;3.20;;
9958;SDS011;5019;48.012;7.812;2023-05-07T00:49:09;4.03;;;3.50;;
9958;SDS011;5019;48.012;7.812;2023-05-07T00:51:36;5.23;;;3.10;;
9958;SDS011;5019;48.012;7.812;2023-05-07T00:54:02;3.00;;;2.80;;
9958;SDS011;5019;48.012;7.812;2023-05-07T00:56:28;5.97;;;3.17;;
9958;SDS011;5019;48.012;7.812;2023-05-07T00:58:54;3.13;;;2.83;;
9958;SDS011;5019;48.012;7.812;2023-05-07T01:01:21;2.83;;;2.53;;
9958;SDS011;5019;48.012;7.812;2023-05-07T01:03:47;4.63;;;2.27;;
9958;SDS011;5019;48.012;7.812;2023-05-07T01:06:13;2.53;;;2.33;;
9958;SDS011;5019;48.012;7.812;2023-05-07T01:08:41;3.83;;;2.97;;
9958;SDS011;5019;48.012;7.812;2023-05-07T01:11:08;2.80;;;2.60;;
9958;SDS011;5019;48.012;7.812;2023-05-07T01:13:34;2.10;;;1.93;;
9958;SDS011;5019;48.012;7.812;2023-05-07T01:16:01;2.47;;;2.27;;
9958;SDS011;5019;48.012;7.812;2023-05-07T01:18:27;2.43;;;2.23;;
9958;SDS011;5019;48.012;7.812;2023-05-07T01:20:55;2.60;;;2.40;;
9958;SDS011;5019;48.012;7.812;2023-05-07T01:23:22;3.20;;;2.37;;
9958;SDS011;5019;48.012;7.812;2023-05-07T01:25:54;3.27;;;2.37;;
9958;SDS011;5019;48.012;7.812;2023-05-07T01:28:20;2.47;;;2.27;;
9958;SDS011;5019;48.012;7.812;2023-05-07T01:30:48;2.60;;;2.40;;
9958;SDS011;5019;48.012;7.812;2023-05-07T01:33:15;2.23;;;2.13;;
9958;SDS011;5019;48.012;7.812;2023-05-07T01:35:43;2.13;;;1.93;;
9958;SDS011;5019;48.012;7.812;2023-05-07T01:38:11;1.80;;;1.70;;
9958;SDS011;5019;48.012;7.812;2023-05-07T01:40:37;1.70;;;1.60;;
9958;SDS011;5019;48.012;7.812;2023-05-07T01:43:03;2.07;;;1.80;;
9958;SDS011;5019;48.012;7.812;2023-05-07T01:45:30;2.90;;;2.33;;
9958;SDS011;5019;48.012;7.812;2023-05-07T01:47:57;3.87;;;2.90;;
9958;SDS011;5019;48.012;7.812;2023-05-07T01:50:24;8.83;;;3.50;;
9958;SDS011;5019;48.012;7.812;2023-05-07T01:52:51;2.83;;;2.63;;
9958;SDS011;5019;48.012;7.812;2023-05-07T01:55:17;2.57;;;2.30;;
9958;SDS011;5019;48.012;7.812;2023-05-07T01:57:43;5.63;;;3.50;;
9958;SDS011;5019;48.012;7.812;2023-05-07T02:00:09;4.63;;;3.10;;
9958;SDS011;5019;48.012;7.812;2023-05-07T02:02:35;6.63;;;4.77;;
9958;SDS011;5019;48.012;7.812;2023-05-07T02:05:03;3.80;;;3.40;;
9958;SDS011;5019;48.012;7.812;2023-05-07T02:07:29;3.67;;;2.60;;
9958;SDS011;5019;48.012;7.812;2023-05-07T02:09:55;5.33;;;2.80;;
9958;SDS011;5019;48.012;7.812;2023-05-07T02:12:21;3.40;;;2.87;;
9958;SDS011;5019;48.012;7.812;2023-05-07T02:14:47;3.90;;;3.53;;
9958;SDS011;5019;48.012;7.812;2023-05-07T02:17:13;4.93;;;3.10;;
9958;SDS011;5019;48.012;7.812;2023-05-07T02:19:39;3.40;;;2.47;;
9958;SDS011;5019;48.012;7.812;2023-05-07T02:22:06;6.93;;;3.47;;
9958;SDS011;5019;48.012;7.812;2023-05-07T02:24:32;2.97;;;2.77;;
9958;SDS011;5019;48.012;7.812;2023-05-07T02:26:58;4.50;;;2.43;;
9958;SDS011;5019;48.012;7.812;2023-05-07T02:29:24;5.90;;;3.10;;
9958;SDS011;5019;48.012;7.812;2023-05-07T02:31:50;4.80;;;3.80;;
9958;SDS011;5019;48.012;7.812;2023-05-07T02:34:17;3.97;;;2.83;;
9958;SDS011;5019;48.012;7.812;2023-05-07T02:36:43;3.90;;;3.07;;
9958;SDS011;5019;48.012;7.812;2023-05-07T02:39:10;3.73;;;2.80;;
9958;SDS011;5019;48.012;7.812;2023-05-07T02:41:36;3.07;;;2.53;;
9958;SDS011;5019;48.012;7.812;2023-05-07T02:44:02;3.60;;;2.63;;
9958;SDS011;5019;48.012;7.812;2023-05-07T02:46:28;4.30;;;3.27;;
9958;SDS011;5019;48.012;7.812;2023-05-07T02:48:55;4.13;;;2.80;;
9958;SDS011;5019;48.012;7.812;2023-05-07T02:51:21;3.70;;;2.77;;
9958;SDS011;5019;48.012;7.812;2023-05-07T02:53:48;5.77;;;2.90;;
9958;SDS011;5019;48.012;7.812;2023-05-07T02:56:14;3.63;;;3.00;;
9958;SDS011;5019;48.012;7.812;2023-05-07T02:58:40;5.50;;;3.10;;
9958;SDS011;5019;48.012;7.812;2023-05-07T03:01:09;3.13;;;2.80;;
9958;SDS011;5019;48.012;7.812;2023-05-07T03:03:36;7.50;;;3.30;;
9958;SDS011;5019;48.012;7.812;2023-05-07T03:06:02;3.57;;;2.97;;
9958;SDS011;5019;48.012;7.812;2023-05-07T03:08:28;5.20;;;3.67;;
9958;SDS011;5019;48.012;7.812;2023-05-07T03:10:54;3.17;;;2.87;;
9958;SDS011;5019;48.012;7.812;2023-05-07T03:13:20;7.33;;;4.27;;
9958;SDS011;5019;48.012;7.812;2023-05-07T03:15:46;4.80;;;3.70;;
9958;SDS011;5019;48.012;7.812;2023-05-07T03:18:12;3.77;;;3.40;;
9958;SDS011;5019;48.012;7.812;2023-05-07T03:20:38;3.40;;;2.97;;
9958;SDS011;5019;48.012;7.812;2023-05-07T03:23:04;6.80;;;4.13;;
9958;SDS011;5019;48.012;7.812;2023-05-07T03:25:31;7.00;;;4.27;;
9958;SDS011;5019;48.012;7.812;2023-05-07T03:27:57;4.73;;;3.60;;
9958;SDS011;5019;48.012;7.812;2023-05-07T03:30:23;3.57;;;3.23;;
9958;SDS011;5019;48.012;7.812;2023-05-07T03:32:49;3.90;;;3.50;;
9958;SDS011;5019;48.012;7.812;2023-05-07T03:35:15;2.77;;;2.60;;
9958;SDS011;5019;48.012;7.812;2023-05-07T03:37:42;2.30;;;2.07;;
9958;SDS011;5019;48.012;7.812;2023-05-07T03:40:08;2.37;;;2.17;;
9958;SDS011;5019;48.012;7.812;2023-05-07T03:42:35;3.10;;;1.93;;
9958;SDS011;5019;48.012;7.812;2023-05-07T03:45:01;3.23;;;2.50;;
9958;SDS011;5019;48.012;7.812;2023-05-07T03:47:27;2.83;;;2.30;;
9958;SDS011;5019;48.012;7.812;2023-05-07T03:49:53;3.93;;;2.60;;
9958;SDS011;5019;48.012;7.812;2023-05-07T03:52:19;4.27;;;2.60;;
9958;SDS011;5019;48.012;7.812;2023-05-07T03:54:49;3.50;;;2.77;;
9958;SDS011;5019;48.012;7.812;2023-05-07T03:57:15;3.13;;;2.60;;
9958;SDS011;5019;48.012;7.812;2023-05-07T03:59:41;4.70;;;2.60;;
9958;SDS011;5019;48.012;7.812;2023-05-07T04:02:07;3.00;;;2.60;;
9958;SDS011;5019;48.012;7.812;2023-05-07T04:04:33;2.30;;;2.10;;
9958;SDS011;5019;48.012;7.812;2023-05-07T04:06:59;2.13;;;2.03;;
9958;SDS011;5019;48.012;7.812;2023-05-07T04:09:25;1.97;;;1.77;;
9958;SDS011;5019;48.012;7.812;2023-05-07T04:11:51;3.40;;;2.67;;
9958;SDS011;5019;48.012;7.812;2023-05-07T04:14:17;2.20;;;2.10;;
9958;SDS011;5019;48.012;7.812;2023-05-07T04:16:43;2.80;;;1.90;;
9958;SDS011;5019;48.012;7.812;2023-05-07T04:19:09;4.50;;;2.70;;
9958;SDS011;5019;48.012;7.812;2023-05-07T04:21:35;4.40;;;2.80;;
9958;SDS011;5019;48.012;7.812;2023-05-07T04:24:02;2.97;;;2.77;;
9958;SDS011;5019;48.012;7.812;2023-05-07T04:26:28;2.60;;;2.43;;
9958;SDS011;5019;48.012;7.812;2023-05-07T04:28:55;3.93;;;3.23;;
9958;SDS011;5019;48.012;7.812;2023-05-07T04:31:22;3.33;;;2.47;;
9958;SDS011;5019;48.012;7.812;2023-05-07T04:33:48;3.93;;;2.30;;
9958;SDS011;5019;48.012;7.812;2023-05-07T04:36:15;2.17;;;1.97;;
9958;SDS011;5019;48.012;7.812;2023-05-07T04:38:41;1.67;;;1.40;;
9958;SDS011;5019;48.012;7.812;2023-05-07T04:41:08;3.07;;;2.27;;
9958;SDS011;5019;48.012;7.812;2023-05-07T04:43:34;8.10;;;2.40;;
9958;SDS011;5019;48.012;7.812;2023-05-07T04:46:00;2.33;;;2.20;;
9958;SDS011;5019;48.012;7.812;2023-05-07T04:48:26;3.00;;;2.07;;
9958;SDS011;5019;48.012;7.812;2023-05-07T04:50:53;2.97;;;2.23;;
9958;SDS011;5019;48.012;7.812;2023-05-07T04:53:20;2.70;;;2.50;;
9958;SDS011;5019;48.012;7.812;2023-05-07T04:55:46;2.27;;;2.07;;
9958;SDS011;5019;48.012;7.812;2023-05-07T04:58:12;3.33;;;1.77;;
9958;SDS011;5019;48.012;7.812;2023-05-07T05:00:39;2.10;;;2.00;;
9958;SDS011;5019;48.012;7.812;2023-05-07T05:03:06;2.40;;;2.13;;
9958;SDS011;5019;48.012;7.812;2023-05-07T05:05:32;3.53;;;2.80;;
9958;SDS011;5019;48.012;7.812;2023-05-07T05:07:58;4.73;;;2.30;;
9958;SDS011;5019;48.012;7.812;2023-05-07T05:10:24;3.10;;;2.80;;
9958;SDS011;5019;48.012;7.812;2023-05-07T05:12:50;2.63;;;2.43;;
9958;SDS011;5019;48.012;7.812;2023-05-07T05:15:17;2.83;;;2.50;;
9958;SDS011;5019;48.012;7.812;2023-05-07T05:17:43;3.83;;;2.60;;
9958;SDS011;5019;48.012;7.812;2023-05-07T05:20:09;5.53;;;2.50;;
9958;SDS011;5019;48.012;7.812;2023-05-07T05:22:36;2.60;;;2.00;;
9958;SDS011;5019;48.012;7.812;2023-05-07T05:25:02;2.43;;;2.20;;
9958;SDS011;5019;48.012;7.812;2023-05-07T05:27:28;2.77;;;2.43;;
9958;SDS011;5019;48.012;7.812;2023-05-07T05:29:54;2.67;;;2.47;;
9958;SDS011;5019;48.012;7.812;2023-05-07T05:32:20;4.60;;;2.33;;
9958;SDS011;5019;48.012;7.812;2023-05-07T05:34:47;2.67;;;2.30;;
9958;SDS011;5019;48.012;7.812;2023-05-07T05:37:13;4.07;;;2.17;;
9958;SDS011;5019;48.012;7.812;2023-05-07T05:39:39;4.83;;;2.07;;
9958;SDS011;5019;48.012;7.812;2023-05-07T05:42:05;1.70;;;1.60;;
9958;SDS011;5019;48.012;7.812;2023-05-07T05:44:31;3.73;;;2.13;;
9958;SDS011;5019;48.012;7.812;2023-05-07T05:46:57;1.90;;;1.80;;
9958;SDS011;5019;48.012;7.812;2023-05-07T05:49:24;2.37;;;2.03;;
9958;SDS011;5019;48.012;7.812;2023-05-07T05:51:50;1.80;;;1.70;;
9958;SDS011;5019;48.012;7.812;2023-05-07T05:54:16;2.40;;;1.93;;
9958;SDS011;5019;48.012;7.812;2023-05-07T05:56:42;1.90;;;1.80;;
9958;SDS011;5019;48.012;7.812;2023-05-07T05:59:09;2.53;;;1.90;;
9958;SDS011;5019;48.012;7.812;2023-05-07T06:01:35;2.30;;;2.13;;
9958;SDS011;5019;48.012;7.812;2023-05-07T06:04:01;2.53;;;1.93;;
9958;SDS011;5019;48.012;7.812;2023-05-07T06:06:27;2.33;;;2.13;;
9958;SDS011;5019;48.012;7.812;2023-05-07T06:08:53;2.50;;;2.30;;
9958;SDS011;5019;48.012;7.812;2023-05-07T06:11:19;3.97;;;2.40;;
9958;SDS011;5019;48.012;7.812;2023-05-07T06:13:45;2.70;;;2.50;;
9958;SDS011;5019;48.012;7.812;2023-05-07T06:16:11;1.90;;;1.80;;
9958;SDS011;5019;48.012;7.812;2023-05-07T06:18:37;4.13;;;2.33;;
9958;SDS011;5019;48.012;7.812;2023-05-07T06:21:03;3.90;;;2.60;;
9958;SDS011;5019;48.012;7.812;2023-05-07T06:23:29;5.93;;;2.50;;
9958;SDS011;5019;48.012;7.812;2023-05-07T06:25:55;3.83;;;2.37;;
9958;SDS011;5019;48.012;7.812;2023-05-07T06:28:21;2.30;;;2.10;;
9958;SDS011;5019;48.012;7.812;2023-05-07T06:30:47;2.60;;;2.40;;
9958;SDS011;5019;48.012;7.812;2023-05-07T06:33:14;3.17;;;2.47;;
9958;SDS011;5019;48.012;7.812;2023-05-07T06:35:40;1.80;;;1.70;;
9958;SDS011;5019;48.012;7.812;2023-05-07T06:38:06;2.33;;;2.13;;
9958;SDS011;5019;48.012;7.812;2023-05-07T06:40:32;2.33;;;2.23;;
9958;SDS011;5019;48.012;7.812;2023-05-07T06:42:58;2.50;;;2.03;;
9958;SDS011;5019;48.012;7.812;2023-05-07T06:45:24;5.00;;;2.70;;
9958;SDS011;5019;48.012;7.812;2023-05-07T06:47:50;4.73;;;3.40;;
9958;SDS011;5019;48.012;7.812;2023-05-07T06:50:16;3.77;;;2.97;;
9958;SDS011;5019;48.012;7.812;2023-05-07T06:52:42;2.83;;;2.50;;
9958;SDS011;5019;48.012;7.812;2023-05-07T06:55:08;3.10;;;2.80;;
9958;SDS011;5019;48.012;7.812;2023-05-07T06:57:36;3.93;;;3.23;;
9958;SDS011;5019;48.012;7.812;2023-05-07T07:00:02;4.20;;;3.07;;
9958;SDS011;5019;48.012;7.812;2023-05-07T07:02:28;3.43;;;3.00;;
9958;SDS011;5019;48.012;7.812;2023-05-07T07:04:54;4.33;;;3.40;;
9958;SDS011;5019;48.012;7.812;2023-05-07T07:07:20;3.67;;;3.33;;
9958;SDS011;5019;48.012;7.812;2023-05-07T07:09:46;5.37;;;3.40;;
9958;SDS011;5019;48.012;7.812;2023-05-07T07:12:12;4.70;;;3.43;;
9958;SDS011;5019;48.012;7.812;2023-05-07T07:14:38;3.97;;;3.37;;
9958;SDS011;5019;48.012;7.812;2023-05-07T07:17:03;3.63;;;3.10;;
9958;SDS011;5019;48.012;7.812;2023-05-07T07:19:30;4.30;;;3.27;;
9958;SDS011;5019;48.012;7.812;2023-05-07T07:21:56;3.50;;;3.10;;
9958;SDS011;5019;48.012;7.812;2023-05-07T07:24:22;4.40;;;3.37;;
9958;SDS011;5019;48.012;7.812;2023-05-07T07:26:48;3.67;;;3.23;;
9958;SDS011;5019;48.012;7.812;2023-05-07T07:29:14;3.10;;;2.80;;
9958;SDS011;5019;48.012;7.812;2023-05-07T07:31:40;3.80;;;3.50;;
9958;SDS011;5019;48.012;7.812;2023-05-07T07:34:06;6.10;;;2.53;;
9958;SDS011;5019;48.012;7.812;2023-05-07T07:36:32;3.87;;;2.60;;
9958;SDS011;5019;48.012;7.812;2023-05-07T07:38:57;3.27;;;2.97;;
9958;SDS011;5019;48.012;7.812;2023-05-07T07:41:23;3.30;;;3.00;;
9958;SDS011;5019;48.012;7.812;2023-05-07T07:43:50;7.03;;;2.80;;
9958;SDS011;5019;48.012;7.812;2023-05-07T07:46:16;3.10;;;2.70;;
9958;SDS011;5019;48.012;7.812;2023-05-07T07:48:42;2.67;;;2.47;;
9958;SDS011;5019;48.012;7.812;2023-05-07T07:51:08;4.43;;;3.00;;
9958;SDS011;5019;48.012;7.812;2023-05-07T07:53:34;2.60;;;2.40;;
9958;SDS011;5019;48.012;7.812;2023-05-07T07:56:00;3.47;;;3.00;;
9958;SDS011;5019;48.012;7.812;2023-05-07T07:58:26;3.70;;;3.10;;
9958;SDS011;5019;48.012;7.812;2023-05-07T08:00:52;2.90;;;1.90;;
9958;SDS011;5019;48.012;7.812;2023-05-07T08:03:20;3.10;;;2.80;;
9958;SDS011;5019;48.012;7.812;2023-05-07T08:05:46;3.07;;;2.83;;
9958;SDS011;5019;48.012;7.812;2023-05-07T08:08:14;4.03;;;3.03;;
9958;SDS011;5019;48.012;7.812;2023-05-07T08:10:40;2.77;;;2.27;;
9958;SDS011;5019;48.012;7.812;2023-05-07T08:13:06;2.37;;;2.17;;
9958;SDS011;5019;48.012;7.812;2023-05-07T08:15:32;3.57;;;3.20;;
9958;SDS011;5019;48.012;7.812;2023-05-07T08:17:58;4.23;;;3.90;;
9958;SDS011;5019;48.012;7.812;2023-05-07T08:20:28;3.20;;;2.93;;
9958;SDS011;5019;48.012;7.812;2023-05-07T08:22:53;3.60;;;2.87;;
9958;SDS011;5019;48.012;7.812;2023-05-07T08:25:19;4.03;;;2.83;;
9958;SDS011;5019;48.012;7.812;2023-05-07T08:27:46;3.60;;;3.20;;
9958;SDS011;5019;48.012;7.812;2023-05-07T08:30:12;2.40;;;2.20;;
9958;SDS011;5019;48.012;7.812;2023-05-07T08:32:38;3.47;;;3.17;;
9958;SDS011;5019;48.012;7.812;2023-05-07T08:35:04;4.33;;;2.33;;
9958;SDS011;5019;48.012;7.812;2023-05-07T08:37:30;3.10;;;2.80;;
9958;SDS011;5019;48.012;7.812;2023-05-07T08:39:56;3.63;;;2.57;;
9958;SDS011;5019;48.012;7.812;2023-05-07T08:42:23;3.80;;;2.87;;
9958;SDS011;5019;48.012;7.812;2023-05-07T08:44:50;3.83;;;2.87;;
9958;SDS011;5019;48.012;7.812;2023-05-07T08:47:19;2.83;;;2.57;;
9958;SDS011;5019;48.012;7.812;2023-05-07T08:49:45;2.63;;;2.43;;
9958;SDS011;5019;48.012;7.812;2023-05-07T08:52:12;2.67;;;2.47;;
9958;SDS011;5019;48.012;7.812;2023-05-07T08:54:38;3.00;;;2.70;;
9958;SDS011;5019;48.012;7.812;2023-05-07T08:57:04;5.13;;;3.33;;
9958;SDS011;5019;48.012;7.812;2023-05-07T08:59:30;4.20;;;3.80;;
9958;SDS011;5019;48.012;7.812;2023-05-07T09:01:56;3.40;;;2.90;;
9958;SDS011;5019;48.012;7.812;2023-05-07T09:04:22;4.10;;;3.07;;
9958;SDS011;5019;48.012;7.812;2023-05-07T09:06:48;4.10;;;3.63;;
9958;SDS011;5019;48.012;7.812;2023-05-07T09:09:16;3.97;;;3.57;;
9958;SDS011;5019;48.012;7.812;2023-05-07T09:11:45;4.13;;;3.73;;
9958;SDS011;5019;48.012;7.812;2023-05-07T09:14:11;3.37;;;3.00;;
9958;SDS011;5019;48.012;7.812;2023-05-07T09:16:37;3.90;;;3.13;;
9958;SDS011;5019;48.012;7.812;2023-05-07T09:19:04;5.03;;;3.27;;
9958;SDS011;5019;48.012;7.812;2023-05-07T09:21:30;4.70;;;3.40;;
9958;SDS011;5019;48.012;7.812;2023-05-07T09:23:56;3.57;;;3.07;;
9958;SDS011;5019;48.012;7.812;2023-05-07T09:26:22;3.30;;;2.43;;
9958;SDS011;5019;48.012;7.812;2023-05-07T09:28:49;2.77;;;2.57;;
9958;SDS011;5019;48.012;7.812;2023-05-07T09:31:15;4.20;;;3.00;;
9958;SDS011;5019;48.012;7.812;2023-05-07T09:33:41;3.90;;;3.60;;
9958;SDS011;5019;48.012;7.812;2023-05-07T09:36:08;2.63;;;2.40;;
9958;SDS011;5019;48.012;7.812;2023-05-07T09:38:35;2.60;;;2.40;;
9958;SDS011;5019;48.012;7.812;2023-05-07T09:41:01;2.50;;;2.30;;
9958;SDS011;5019;48.012;7.812;2023-05-07T09:43:31;2.63;;;2.43;;
9958;SDS011;5019;48.012;7.812;2023-05-07T09:45:58;3.13;;;2.83;;
9958;SDS011;5019;48.012;7.812;2023-05-07T09:48:25;3.37;;;3.07;;
9958;SDS011;5019;48.012;7.812;2023-05-07T09:50:51;3.17;;;2.47;;
9958;SDS011;5019;48.012;7.812;2023-05-07T09:53:19;3.13;;;2.43;;
9958;SDS011;5019;48.012;7.812;2023-05-07T09:55:46;3.63;;;3.27;;
9958;SDS011;5019;48.012;7.812;2023-05-07T09:58:12;2.50;;;2.30;;
9958;SDS011;5019;48.012;7.812;2023-05-07T10:00:41;9.97;;;3.40;;
9958;SDS011;5019;48.012;7.812;2023-05-07T10:03:07;3.90;;;2.80;;
9958;SDS011;5019;48.012;7.812;2023-05-07T10:05:34;2.93;;;2.63;;
9958;SDS011;5019;48.012;7.812;2023-05-07T10:08:01;4.33;;;2.77;;
9958;SDS011;5019;48.012;7.812;2023-05-07T10:10:27;4.40;;;2.27;;
9958;SDS011;5019;48.012;7.812;2023-05-07T10:12:53;2.53;;;2.33;;
9958;SDS011;5019;48.012;7.812;2023-05-07T10:15:20;4.13;;;2.93;;
9958;SDS011;5019;48.012;7.812;2023-05-07T10:17:47;2.17;;;2.07;;
9958;SDS011;5019;48.012;7.812;2023-05-07T10:20:14;1.90;;;1.80;;
9958;SDS011;5019;48.012;7.812;2023-05-07T10:22:43;2.30;;;2.10;;
9958;SDS011;5019;48.012;7.812;2023-05-07T10:25:14;2.57;;;2.10;;
9958;SDS011;5019;48.012;7.812;2023-05-07T10:27:40;4.00;;;2.40;;
9958;SDS011;5019;48.012;7.812;2023-05-07T10:30:12;2.30;;;2.10;;
9958;SDS011;5019;48.012;7.812;2023-05-07T10:35:09;2.77;;;2.30;;
9958;SDS011;5019;48.012;7.812;2023-05-07T10:37:36;3.50;;;2.53;;
9958;SDS011;5019;48.012;7.812;2023-05-07T10:40:02;2.80;;;2.60;;
9958;SDS011;5019;48.012;7.812;2023-05-07T10:42:28;4.83;;;3.03;;
9958;SDS011;5019;48.012;7.812;2023-05-07T10:44:54;6.23;;;3.00;;
9958;SDS011;5019;48.012;7.812;2023-05-07T10:47:20;3.53;;;3.00;;
9958;SDS011;5019;48.012;7.812;2023-05-07T10:54:39;3.13;;;2.80;;
9958;SDS011;5019;48.012;7.812;2023-05-07T11:05:29;2.60;;;2.40;;
9958;SDS011;5019;48.012;7.812;2023-05-07T11:10:21;3.77;;;2.77;;
9958;SDS011;5019;48.012;7.812;2023-05-07T11:12:50;3.13;;;2.57;;
9958;SDS011;5019;48.012;7.812;2023-05-07T11:15:33;2.90;;;2.63;;
9958;SDS011;5019;48.012;7.812;2023-05-07T11:17:59;3.43;;;2.20;;
9958;SDS011;5019;48.012;7.812;2023-05-07T11:26:02;3.10;;;2.80;;
9958;SDS011;5019;48.012;7.812;2023-05-07T11:28:29;2.73;;;2.50;;
9958;SDS011;5019;48.012;7.812;2023-05-07T11:30:55;4.20;;;2.80;;
9958;SDS011;5019;48.012;7.812;2023-05-07T11:33:22;4.10;;;3.07;;
9958;SDS011;5019;48.012;7.812;2023-05-07T11:35:48;4.33;;;3.13;;
9958;SDS011;5019;48.012;7.812;2023-05-07T11:38:14;2.70;;;2.50;;
9958;SDS011;5019;48.012;7.812;2023-05-07T11:40:50;3.63;;;2.40;;
9958;SDS011;5019;48.012;7.812;2023-05-07T11:43:16;4.07;;;2.90;;
9958;SDS011;5019;48.012;7.812;2023-05-07T11:45:42;3.90;;;2.73;;
9958;SDS011;5019;48.012;7.812;2023-05-07T11:48:08;2.67;;;2.47;;
9958;SDS011;5019;48.012;7.812;2023-05-07T11:50:34;2.70;;;2.50;;
9958;SDS011;5019;48.012;7.812;2023-05-07T11:53:00;5.03;;;2.70;;
9958;SDS011;5019;48.012;7.812;2023-05-07T11:55:32;3.40;;;2.20;;
9958;SDS011;5019;48.012;7.812;2023-05-07T11:57:58;2.40;;;2.20;;
9958;SDS011;5019;48.012;7.812;2023-05-07T12:00:24;3.00;;;2.20;;
9958;SDS011;5019;48.012;7.812;2023-05-07T12:02:50;4.27;;;2.90;;
9958;SDS011;5019;48.012;7.812;2023-05-07T12:05:16;4.27;;;2.90;;
9958;SDS011;5019;48.012;7.812;2023-05-07T12:07:42;2.63;;;2.43;;
9958;SDS011;5019;48.012;7.812;2023-05-07T12:10:08;2.40;;;2.20;;
9958;SDS011;5019;48.012;7.812;2023-05-07T12:12:40;3.00;;;2.23;;
9958;SDS011;5019;48.012;7.812;2023-05-07T12:15:07;3.30;;;2.90;;
9958;SDS011;5019;48.012;7.812;2023-05-07T12:17:33;3.93;;;2.20;;
9958;SDS011;5019;48.012;7.812;2023-05-07T12:19:59;2.27;;;2.00;;
9958;SDS011;5019;48.012;7.812;2023-05-07T12:22:25;3.10;;;2.90;;
9958;SDS011;5019;48.012;7.812;2023-05-07T12:24:58;4.43;;;3.17;;
9958;SDS011;5019;48.012;7.812;2023-05-07T12:27:25;3.73;;;2.90;;
9958;SDS011;5019;48.012;7.812;2023-05-07T12:29:51;4.27;;;3.47;;
9958;SDS011;5019;48.012;7.812;2023-05-07T12:32:17;6.57;;;3.70;;
9958;SDS011;5019;48.012;7.812;2023-05-07T12:34:44;3.13;;;2.83;;
9958;SDS011;5019;48.012;7.812;2023-05-07T12:37:10;3.20;;;2.90;;
9958;SDS011;5019;48.012;7.812;2023-05-07T12:39:37;4.73;;;2.97;;
9958;SDS011;5019;48.012;7.812;2023-05-07T12:42:04;4.87;;;3.27;;
9958;SDS011;5019;48.012;7.812;2023-05-07T12:44:31;5.57;;;3.57;;
9958;SDS011;5019;48.012;7.812;2023-05-07T12:46:58;3.13;;;2.93;;
9958;SDS011;5019;48.012;7.812;2023-05-07T12:49:25;3.70;;;2.97;;
9958;SDS011;5019;48.012;7.812;2023-05-07T12:51:51;3.83;;;3.53;;
9958;SDS011;5019;48.012;7.812;2023-05-07T12:54:33;3.57;;;3.20;;
9958;SDS011;5019;48.012;7.812;2023-05-07T12:57:00;3.17;;;1.97;;
9958;SDS011;5019;48.012;7.812;2023-05-07T12:59:41;2.30;;;2.10;;
9958;SDS011;5019;48.012;7.812;2023-05-07T13:02:08;3.90;;;2.23;;
9958;SDS011;5019;48.012;7.812;2023-05-07T13:04:34;3.10;;;2.77;;
9958;SDS011;5019;48.012;7.812;2023-05-07T13:07:00;3.40;;;3.10;;
9958;SDS011;5019;48.012;7.812;2023-05-07T13:09:27;2.43;;;2.23;;
9958;SDS011;5019;48.012;7.812;2023-05-07T13:11:54;3.50;;;2.40;;
9958;SDS011;5019;48.012;7.812;2023-05-07T13:14:20;3.13;;;2.53;;
9958;SDS011;5019;48.012;7.812;2023-05-07T13:16:46;3.17;;;2.97;;
9958;SDS011;5019;48.012;7.812;2023-05-07T13:19:12;2.53;;;2.40;;
9958;SDS011;5019;48.012;7.812;2023-05-07T13:21:38;3.07;;;2.53;;
9958;SDS011;5019;48.012;7.812;2023-05-07T13:24:04;3.73;;;2.70;;
9958;SDS011;5019;48.012;7.812;2023-05-07T13:26:30;2.83;;;2.63;;
9958;SDS011;5019;48.012;7.812;2023-05-07T13:28:57;2.77;;;2.57;;
9958;SDS011;5019;48.012;7.812;2023-05-07T13:31:23;3.13;;;2.80;;
9958;SDS011;5019;48.012;7.812;2023-05-07T13:33:50;3.60;;;2.80;;
9958;SDS011;5019;48.012;7.812;2023-05-07T13:36:17;6.20;;;4.00;;
9958;SDS011;5019;48.012;7.812;2023-05-07T13:38:43;3.47;;;2.90;;
9958;SDS011;5019;48.012;7.812;2023-05-07T13:41:09;3.80;;;3.50;;
9958;SDS011;5019;48.012;7.812;2023-05-07T13:43:35;3.50;;;3.03;;
9958;SDS011;5019;48.012;7.812;2023-05-07T13:46:01;3.77;;;3.40;;
9958;SDS011;5019;48.012;7.812;2023-05-07T13:48:27;3.60;;;2.90;;
9958;SDS011;5019;48.012;7.812;2023-05-07T13:50:56;4.27;;;3.27;;
9958;SDS011;5019;48.012;7.812;2023-05-07T13:53:22;5.60;;;3.20;;
9958;SDS011;5019;48.012;7.812;2023-05-07T13:55:48;5.40;;;2.90;;
9958;SDS011;5019;48.012;7.812;2023-05-07T13:58:14;5.20;;;3.43;;
9958;SDS011;5019;48.012;7.812;2023-05-07T14:00:40;3.43;;;3.23;;
9958;SDS011;5019;48.012;7.812;2023-05-07T14:03:06;3.23;;;2.93;;
9958;SDS011;5019;48.012;7.812;2023-05-07T14:05:32;3.20;;;2.80;;
9958;SDS011;5019;48.012;7.812;2023-05-07T14:07:58;2.50;;;2.30;;
9958;SDS011;5019;48.012;7.812;2023-05-07T14:10:24;3.40;;;2.97;;
9958;SDS011;5019;48.012;7.812;2023-05-07T14:12:50;4.07;;;2.80;;
9958;SDS011;5019;48.012;7.812;2023-05-07T14:15:17;4.23;;;3.23;;
9958;SDS011;5019;48.012;7.812;2023-05-07T14:17:43;3.73;;;2.93;;
9958;SDS011;5019;48.012;7.812;2023-05-07T14:20:09;5.33;;;3.87;;
9958;SDS011;5019;48.012;7.812;2023-05-07T14:22:35;4.30;;;2.93;;
9958;SDS011;5019;48.012;7.812;2023-05-07T14:25:01;2.60;;;2.40;;
9958;SDS011;5019;48.012;7.812;2023-05-07T14:27:28;2.03;;;1.93;;
9958;SDS011;5019;48.012;7.812;2023-05-07T14:29:54;2.57;;;2.23;;
9958;SDS011;5019;48.012;7.812;2023-05-07T14:32:20;3.40;;;1.93;;
9958;SDS011;5019;48.012;7.812;2023-05-07T14:34:46;1.30;;;1.20;;
9958;SDS011;5019;48.012;7.812;2023-05-07T14:37:12;1.53;;;1.30;;
9958;SDS011;5019;48.012;7.812;2023-05-07T14:39:38;1.40;;;1.17;;
9958;SDS011;5019;48.012;7.812;2023-05-07T14:42:04;1.67;;;1.57;;
9958;SDS011;5019;48.012;7.812;2023-05-07T14:44:32;1.07;;;1.07;;
9958;SDS011;5019;48.012;7.812;2023-05-07T14:46:58;2.10;;;1.47;;
9958;SDS011;5019;48.012;7.812;2023-05-07T14:49:24;0.90;;;0.90;;
9958;SDS011;5019;48.012;7.812;2023-05-07T14:51:50;1.00;;;0.90;;
9958;SDS011;5019;48.012;7.812;2023-05-07T14:54:16;1.17;;;1.07;;
9958;SDS011;5019;48.012;7.812;2023-05-07T14:56:42;0.90;;;0.90;;
9958;SDS011;5019;48.012;7.812;2023-05-07T14:59:08;1.20;;;1.10;;
9958;SDS011;5019;48.012;7.812;2023-05-07T15:01:35;1.30;;;1.20;;
9958;SDS011;5019;48.012;7.812;2023-05-07T15:04:03;1.20;;;1.10;;
9958;SDS011;5019;48.012;7.812;2023-05-07T15:06:29;2.13;;;1.33;;
9958;SDS011;5019;48.012;7.812;2023-05-07T15:08:55;1.20;;;1.10;;
9958;SDS011;5019;48.012;7.812;2023-05-07T15:11:21;1.10;;;1.00;;
9958;SDS011;5019;48.012;7.812;2023-05-07T15:13:47;2.37;;;1.20;;
9958;SDS011;5019;48.012;7.812;2023-05-07T15:16:13;1.30;;;1.20;;
9958;SDS011;5019;48.012;7.812;2023-05-07T15:18:39;1.03;;;1.00;;
9958;SDS011;5019;48.012;7.812;2023-05-07T15:21:05;1.47;;;1.20;;
9958;SDS011;5019;48.012;7.812;2023-05-07T15:23:31;1.20;;;1.10;;
9958;SDS011;5019;48.012;7.812;2023-05-07T15:25:57;3.37;;;2.10;;
9958;SDS011;5019;48.012;7.812;2023-05-07T15:28:24;1.93;;;1.73;;
9958;SDS011;5019;48.012;7.812;2023-05-07T15:30:50;2.73;;;1.97;;
9958;SDS011;5019;48.012;7.812;2023-05-07T15:33:16;1.20;;;1.10;;